Time;durP1;ratioP1;P1;durP2;ratioP2;P2;SDS_P1;SDS_P2;PMS_P1;PMS_P2;Temp;Humidity;BMP_temperature;BMP_pressure;BME280_temperature;BME280_humidity;BME280_pressure;Samples;Min_cycle;Max_cycle;Signal;HPM_P1;HPM_P2
2023/07/19 00:01:46;;;;;;;;;;;;;;;28.43;60.57;97575.03;5059580;28;19925;-74
2023/07/19 00:04:13;;;;;;;;;;;;;;;28.37;60.98;97571.09;5059476;28;19925;-74
2023/07/19 00:06:39;;;;;;;;;;;;;;;28.45;60.70;97580.94;5059993;28;20001;-75
2023/07/19 00:09:07;;;;;;;;;;;;;;;28.53;60.90;97577.03;5062017;28;19925;-75
2023/07/19 00:11:33;;;;;;;;;;;;;;;28.59;61.17;97581.00;5063549;28;19920;-75
2023/07/19 00:14:00;;;;;;;;;;;;;;;28.63;61.05;97573.50;5063926;28;20401;-74
2023/07/19 00:16:27;;;;;;;;;;;;;;;28.53;61.63;97568.81;5047586;28;19932;-74
2023/07/19 00:18:54;;;;;;;;;;;;;;;27.87;63.85;97568.13;5044628;28;19931;-74
2023/07/19 00:21:20;;;;;;;;;;;;;;;26.88;70.73;97571.28;5059585;28;19976;-74
2023/07/19 00:23:47;;;;;;;;;;;;;;;27.20;71.36;97572.34;5041750;28;19932;-74
2023/07/19 00:26:14;;;;;;;;;;;;;;;27.34;70.68;97576.00;5041786;28;19960;-74
2023/07/19 00:28:41;;;;;;;;;;;;;;;26.99;74.51;97570.22;5059367;28;19925;-74
2023/07/19 00:31:07;;;;;;;;;;;;;;;26.95;75.36;97560.41;5061970;28;19925;-74
2023/07/19 00:33:34;;;;;;;;;;;;;;;27.10;74.66;97559.34;5062551;28;19925;-74
2023/07/19 00:36:00;;;;;;;;;;;;;;;27.50;72.58;97564.75;5060834;28;19944;-74
2023/07/19 00:38:26;;;;;;;;;;;;;;;27.81;70.67;97558.69;5059194;28;19932;-75
2023/07/19 00:40:53;;;;;;;;;;;;;;;27.73;70.55;97554.31;5059661;28;19971;-74
2023/07/19 00:43:20;;;;;;;;;;;;;;;27.94;69.87;97564.63;5062511;28;19959;-74
2023/07/19 00:45:50;;;;;;;;;;;;;;;27.99;68.92;97557.97;5062294;28;19967;-74
2023/07/19 00:48:17;;;;;;;;;;;;;;;27.49;72.29;97552.22;5058860;28;19951;-74
2023/07/19 00:50:44;;;;;;;;;;;;;;;27.49;71.94;97556.91;5058812;28;19925;-74
2023/07/19 00:53:11;;;;;;;;;;;;;;;27.77;70.71;97568.06;5044298;28;20436;-74
2023/07/19 00:55:37;;;;;;;;;;;;;;;27.80;70.36;97565.34;5062193;28;19925;-74
2023/07/19 00:58:04;;;;;;;;;;;;;;;26.87;79.14;97561.47;5060216;28;19935;-74
2023/07/19 01:00:32;;;;;;;;;;;;;;;26.78;81.09;97565.31;5058692;28;19925;-74
2023/07/19 01:02:58;;;;;;;;;;;;;;;27.15;77.58;97561.72;5059405;28;19925;-74
2023/07/19 01:05:24;;;;;;;;;;;;;;;27.46;75.40;97572.16;5061704;28;19947;-74
2023/07/19 01:07:51;;;;;;;;;;;;;;;27.53;74.84;97560.47;5061604;28;19924;-74
2023/07/19 01:10:18;;;;;;;;;;;;;;;27.82;72.74;97565.72;5058856;28;19925;-74
2023/07/19 01:12:44;;;;;;;;;;;;;;;27.99;72.02;97572.50;5059075;28;19952;-74
2023/07/19 01:15:10;;;;;;;;;;;;;;;28.11;71.10;97565.91;5061734;28;19925;-74
2023/07/19 01:17:38;;;;;;;;;;;;;;;28.19;70.47;97559.28;5063673;28;19925;-74
2023/07/19 01:20:06;;;;;;;;;;;;;;;28.26;70.35;97570.25;5060978;28;19996;-74
2023/07/19 01:22:34;;;;;;;;;;;;;;;28.29;70.15;97564.00;5065835;28;20004;-74
2023/07/19 01:25:00;;;;;;;;;;;;;;;28.27;69.97;97569.09;5064678;28;19932;-74
2023/07/19 01:27:26;;;;;;;;;;;;;;;28.34;69.70;97560.91;5045776;28;20024;-74
2023/07/19 01:29:53;;;;;;;;;;;;;;;28.27;69.68;97561.66;5064070;28;19933;-74
2023/07/19 01:32:19;;;;;;;;;;;;;;;28.27;69.77;97561.66;5066126;28;20000;-73
2023/07/19 01:34:46;;;;;;;;;;;;;;;28.31;69.40;97562.47;5048124;28;19964;-73
2023/07/19 01:37:12;;;;;;;;;;;;;;;28.31;69.16;97562.47;5062540;28;19953;-74
2023/07/19 01:39:40;;;;;;;;;;;;;;;27.79;72.17;97563.75;5063370;28;19929;-74
2023/07/19 01:42:07;;;;;;;;;;;;;;;27.15;77.46;97561.72;5066125;28;19925;-74
2023/07/19 01:44:33;;;;;;;;;;;;;;;26.96;79.49;97562.75;5049536;28;20032;-74
2023/07/19 01:46:59;;;;;;;;;;;;;;;27.30;77.60;97557.91;5070995;28;19935;-74
2023/07/19 01:49:26;;;;;;;;;;;;;;;27.64;75.35;97553.88;5062600;28;19940;-74
2023/07/19 01:51:52;;;;;;;;;;;;;;;27.83;73.67;97559.06;5063015;28;19975;-74
2023/07/19 01:54:18;;;;;;;;;;;;;;;27.91;72.43;97564.59;5047786;28;19968;-74
2023/07/19 01:56:46;;;;;;;;;;;;;;;27.95;72.23;97566.19;5065522;28;19960;-74
2023/07/19 01:59:12;;;;;;;;;;;;;;;28.03;71.85;97561.53;5044217;28;20385;-74
2023/07/19 02:01:39;;;;;;;;;;;;;;;28.04;71.68;97561.13;5061700;28;19935;-74
2023/07/19 02:04:05;;;;;;;;;;;;;;;28.05;71.36;97570.19;5063892;28;19965;-74
2023/07/19 02:06:32;;;;;;;;;;;;;;;28.06;71.26;97574.50;5064173;28;19987;-74
2023/07/19 02:08:58;;;;;;;;;;;;;;;28.05;71.33;97572.94;5063709;28;19936;-74
2023/07/19 02:11:25;;;;;;;;;;;;;;;28.09;71.02;97565.50;5061818;28;19925;-74
2023/07/19 02:13:52;;;;;;;;;;;;;;;28.12;70.88;97567.47;5062193;28;19983;-74
2023/07/19 02:16:19;;;;;;;;;;;;;;;28.10;70.90;97575.31;5072080;28;19964;-74
2023/07/19 02:18:45;;;;;;;;;;;;;;;28.08;70.74;97569.41;5065025;28;19960;-74
2023/07/19 02:21:11;;;;;;;;;;;;;;;28.06;70.81;97563.53;5043966;28;19980;-75
2023/07/19 02:23:38;;;;;;;;;;;;;;;28.07;70.56;97560.38;5061528;28;20043;-75
2023/07/19 02:26:04;;;;;;;;;;;;;;;28.03;70.92;97578.78;5045955;28;19960;-75
2023/07/19 02:28:30;;;;;;;;;;;;;;;28.06;70.26;97572.56;5064857;28;20227;-75
2023/07/19 02:30:58;;;;;;;;;;;;;;;28.03;71.01;97569.75;5063660;28;19960;-75
2023/07/19 02:33:24;;;;;;;;;;;;;;;28.02;70.68;97576.41;5061018;28;19953;-73
2023/07/19 02:35:53;;;;;;;;;;;;;;;28.03;70.01;97567.00;5061719;28;19925;-74
2023/07/19 02:38:20;;;;;;;;;;;;;;;28.01;70.78;97570.13;5064792;28;19925;-74
2023/07/19 02:40:46;;;;;;;;;;;;;;;27.97;71.04;97563.06;5064633;28;19996;-73
2023/07/19 02:43:13;;;;;;;;;;;;;;;27.83;71.85;97575.53;5060982;28;19957;-73
2023/07/19 02:45:39;;;;;;;;;;;;;;;27.84;72.00;97576.34;5066932;28;19971;-73
2023/07/19 02:48:07;;;;;;;;;;;;;;;27.72;72.84;97579.41;5064331;28;19965;-73
2023/07/19 02:50:33;;;;;;;;;;;;;;;27.80;72.67;97576.31;5064636;28;19955;-74
2023/07/19 02:53:00;;;;;;;;;;;;;;;27.83;72.57;97574.75;5044919;28;19973;-74
2023/07/19 02:55:26;;;;;;;;;;;;;;;27.88;72.68;97582.63;5060698;28;20028;-74
2023/07/19 02:57:53;;;;;;;;;;;;;;;27.78;73.54;97589.63;5061137;28;19952;-74
2023/07/19 03:00:19;;;;;;;;;;;;;;;27.36;76.16;97581.88;5064132;28;19997;-74
2023/07/19 03:02:46;;;;;;;;;;;;;;;27.35;77.12;97572.09;5063855;28;19935;-74
2023/07/19 03:05:15;;;;;;;;;;;;;;;26.77;83.87;97573.88;5061537;28;19925;-74
2023/07/19 03:07:42;;;;;;;;;;;;;;;26.79;82.62;97569.63;5060963;28;19934;-73
2023/07/19 03:10:08;;;;;;;;;;;;;;;26.50;87.46;97559.53;5045560;28;20598;-74
2023/07/19 03:12:35;;;;;;;;;;;;;;;25.97;91.91;97556.16;5063958;28;19925;-74
2023/07/19 03:15:01;;;;;;;;;;;;;;;25.65;96.03;97546.75;5044839;28;19931;-73
2023/07/19 03:17:28;;;;;;;;;;;;;;;26.15;90.28;97551.69;5050818;28;19960;-73
2023/07/19 03:19:54;;;;;;;;;;;;;;;26.60;87.41;97547.91;5043625;28;19932;-73
2023/07/19 03:22:22;;;;;;;;;;;;;;;26.79;85.49;97560.59;5063818;28;20016;-73
2023/07/19 03:24:48;;;;;;;;;;;;;;;27.03;83.45;97545.56;5064406;28;19995;-73
2023/07/19 03:27:14;;;;;;;;;;;;;;;27.04;82.92;97547.94;5060345;28;19932;-73
2023/07/19 03:29:41;;;;;;;;;;;;;;;26.88;85.11;97561.13;5059946;28;19925;-73
2023/07/19 03:32:08;;;;;;;;;;;;;;;26.29;91.15;97557.34;5062809;28;19944;-74
2023/07/19 03:34:35;;;;;;;;;;;;;;;25.65;98.07;97580.34;5063497;28;19931;-74
2023/07/19 03:37:01;;;;;;;;;;;;;;;25.93;94.09;97566.28;5061645;28;19935;-74
2023/07/19 03:39:29;;;;;;;;;;;;;;;26.53;88.92;97558.78;5060015;28;19948;-74
2023/07/19 03:41:55;;;;;;;;;;;;;;;26.83;87.26;97554.00;5043034;28;19925;-74
2023/07/19 03:44:21;;;;;;;;;;;;;;;27.10;84.59;97562.09;5062440;28;19925;-74
2023/07/19 03:46:48;;;;;;;;;;;;;;;27.25;83.33;97575.53;5070371;28;19935;-74
2023/07/19 03:49:14;;;;;;;;;;;;;;;27.37;82.37;97596.38;5051707;28;19929;-74
2023/07/19 03:51:42;;;;;;;;;;;;;;;27.45;81.44;97600.75;5051632;28;20024;-74
2023/07/19 03:54:08;;;;;;;;;;;;;;;27.47;80.53;97595.69;5051384;28;19929;-74
2023/07/19 03:56:36;;;;;;;;;;;;;;;27.51;80.72;97601.22;5051380;28;19925;-74
2023/07/19 03:59:03;;;;;;;;;;;;;;;27.54;80.30;97601.25;5051363;28;19964;-74
2023/07/19 04:01:29;;;;;;;;;;;;;;;27.55;79.83;97602.81;5051479;28;20492;-74
2023/07/19 04:03:55;;;;;;;;;;;;;;;27.56;79.99;97606.34;5051182;28;19925;-75
2023/07/19 04:06:22;;;;;;;;;;;;;;;27.51;79.55;97604.75;5033311;28;19936;-74
2023/07/19 04:08:48;;;;;;;;;;;;;;;27.35;79.60;97609.69;5051388;28;19929;-74
2023/07/19 04:11:14;;;;;;;;;;;;;;;27.19;79.49;97611.91;5059255;28;19925;-74
2023/07/19 04:13:42;;;;;;;;;;;;;;;27.25;80.65;97597.47;5059577;28;19925;-74
2023/07/19 04:16:08;;;;;;;;;;;;;;;27.32;81.31;97578.34;5069027;28;19928;-74
2023/07/19 04:18:35;;;;;;;;;;;;;;;26.83;85.88;97582.59;5062532;28;19924;-74
2023/07/19 04:21:02;;;;;;;;;;;;;;;26.35;91.08;97578.91;5060904;28;19931;-74
2023/07/19 04:23:28;;;;;;;;;;;;;;;26.60;88.38;97586.25;5059296;28;19925;-74
2023/07/19 04:25:55;;;;;;;;;;;;;;;26.93;85.27;97595.59;5059893;28;19983;-74
2023/07/19 04:28:21;;;;;;;;;;;;;;;27.08;84.49;97586.34;5062669;28;19924;-74
2023/07/19 04:30:49;;;;;;;;;;;;;;;26.21;91.94;97577.56;5062565;28;19967;-75
2023/07/19 04:33:15;;;;;;;;;;;;;;;25.58;98.63;97577.50;5050667;28;19983;-74
2023/07/19 04:35:41;;;;;;;;;;;;;;;25.45;99.24;97578.84;5032880;28;19961;-74
2023/07/19 04:38:08;;;;;;;;;;;;;;;25.77;95.95;97571.13;5050728;28;19936;-74
2023/07/19 04:40:34;;;;;;;;;;;;;;;26.14;93.30;97576.69;5050808;28;19968;-74
2023/07/19 04:43:01;;;;;;;;;;;;;;;26.44;89.83;97572.00;5050490;28;19925;-74
2023/07/19 04:45:27;;;;;;;;;;;;;;;26.81;87.62;97574.75;5054702;28;19956;-75
2023/07/19 04:47:55;;;;;;;;;;;;;;;27.04;85.95;97585.53;5044504;28;19932;-75
2023/07/19 04:50:23;;;;;;;;;;;;;;;27.18;85.53;97588.38;5044851;28;20285;-75
2023/07/19 04:52:50;;;;;;;;;;;;;;;27.32;83.98;97583.03;5062384;28;19931;-74
2023/07/19 04:55:16;;;;;;;;;;;;;;;27.38;83.25;97577.97;5059679;28;19925;-74
2023/07/19 04:57:42;;;;;;;;;;;;;;;26.84;88.57;97574.00;5060102;28;20011;-74
2023/07/19 05:00:11;;;;;;;;;;;;;;;26.16;95.38;97579.88;5062926;28;19929;-74
2023/07/19 05:02:38;;;;;;;;;;;;;;;25.72;100.00;97574.97;5063228;28;19925;-74
2023/07/19 05:05:06;;;;;;;;;;;;;;;25.39;100.00;97588.50;5060434;28;19947;-74
2023/07/19 05:07:34;;;;;;;;;;;;;;;25.16;100.00;97598.69;5058849;28;19936;-74
2023/07/19 05:10:02;;;;;;;;;;;;;;;25.70;100.00;97588.22;5060171;28;19925;-74
2023/07/19 05:12:29;;;;;;;;;;;;;;;26.37;93.50;97579.34;5062171;28;19963;-74
2023/07/19 05:14:55;;;;;;;;;;;;;;;26.59;92.58;97584.66;5061249;28;20379;-74
2023/07/19 05:17:21;;;;;;;;;;;;;;;26.79;90.19;97583.31;5065839;28;19947;-73
2023/07/19 05:19:48;;;;;;;;;;;;;;;26.89;88.38;97583.81;5058470;28;19956;-73
2023/07/19 05:22:16;;;;;;;;;;;;;;;27.00;87.69;97582.75;5050350;28;19936;-74
2023/07/19 05:24:42;;;;;;;;;;;;;;;27.05;87.18;97579.66;5050309;28;19979;-74
2023/07/19 05:27:08;;;;;;;;;;;;;;;27.14;85.92;97588.34;5050378;28;19940;-74
2023/07/19 05:29:35;;;;;;;;;;;;;;;27.02;88.60;97583.16;5050347;28;20399;-73
2023/07/19 05:32:01;;;;;;;;;;;;;;;26.90;88.60;97577.16;5049107;28;19925;-74
2023/07/19 05:34:28;;;;;;;;;;;;;;;26.99;88.77;97583.13;5040774;28;20012;-74
2023/07/19 05:36:55;;;;;;;;;;;;;;;27.04;88.00;97583.59;5058436;28;19964;-74
2023/07/19 05:39:22;;;;;;;;;;;;;;;27.05;87.61;97584.38;5058549;28;19925;-73
2023/07/19 05:41:49;;;;;;;;;;;;;;;27.12;87.04;97587.16;5040720;28;19964;-75
2023/07/19 05:44:16;;;;;;;;;;;;;;;26.92;88.75;97585.81;5061685;28;19960;-74
2023/07/19 05:46:43;;;;;;;;;;;;;;;27.03;87.71;97592.16;5069307;28;19971;-74
2023/07/19 05:49:10;;;;;;;;;;;;;;;27.08;88.37;97581.63;5059256;28;19940;-74
2023/07/19 05:51:37;;;;;;;;;;;;;;;27.19;86.99;97579.00;5058846;28;19932;-75
2023/07/19 05:54:04;;;;;;;;;;;;;;;27.15;87.76;97572.69;5061119;28;19947;-75
2023/07/19 05:56:32;;;;;;;;;;;;;;;27.05;87.69;97590.63;5062298;28;19947;-75
2023/07/19 05:59:00;;;;;;;;;;;;;;;27.21;86.47;97593.91;5060906;28;20280;-74
2023/07/19 06:01:26;;;;;;;;;;;;;;;27.30;86.51;97582.59;5058999;28;19988;-74
2023/07/19 06:03:53;;;;;;;;;;;;;;;26.99;90.65;97572.16;5041044;28;19925;-74
2023/07/19 06:06:19;;;;;;;;;;;;;;;26.41;91.98;97582.91;5044169;28;19924;-74
2023/07/19 06:08:46;;;;;;;;;;;;;;;26.40;91.82;97589.56;5065480;28;19925;-74
2023/07/19 06:11:12;;;;;;;;;;;;;;;26.63;90.53;97584.72;5061874;28;19925;-74
2023/07/19 06:13:40;;;;;;;;;;;;;;;26.85;89.82;97583.00;5061949;28;19968;-74
2023/07/19 06:16:06;;;;;;;;;;;;;;;27.00;88.14;97581.97;5071343;28;19925;-74
2023/07/19 06:18:32;;;;;;;;;;;;;;;27.17;86.85;97584.84;5065014;28;19925;-74
2023/07/19 06:20:59;;;;;;;;;;;;;;;27.28;86.47;97585.72;5063599;28;19925;-74
2023/07/19 06:23:25;;;;;;;;;;;;;;;27.22;85.95;97583.72;5061427;28;19964;-74
2023/07/19 06:25:51;;;;;;;;;;;;;;;27.46;83.64;97583.16;5044014;28;19964;-74
2023/07/19 06:28:18;;;;;;;;;;;;;;;27.51;81.17;97591.03;5065043;28;19956;-74
2023/07/19 06:30:46;;;;;;;;;;;;;;;27.13;81.05;97586.00;5064958;28;19932;-74
2023/07/19 06:33:12;;;;;;;;;;;;;;;27.25;82.73;97580.22;5061605;28;19925;-74
2023/07/19 06:35:38;;;;;;;;;;;;;;;27.14;82.81;97582.09;5061502;28;19929;-74
2023/07/19 06:38:05;;;;;;;;;;;;;;;27.29;82.34;97590.06;5063282;28;20009;-74
2023/07/19 06:40:31;;;;;;;;;;;;;;;27.37;81.38;97582.66;5063368;28;19925;-74
2023/07/19 06:42:57;;;;;;;;;;;;;;;27.11;77.97;97593.81;5063211;28;19933;-74
2023/07/19 06:45:27;;;;;;;;;;;;;;;26.90;80.48;97599.09;5046985;28;19925;-74
2023/07/19 06:47:54;;;;;;;;;;;;;;;26.97;82.20;97583.50;5049222;28;19931;-74
2023/07/19 06:50:21;;;;;;;;;;;;;;;27.19;80.89;97589.97;5064194;28;19925;-74
2023/07/19 06:52:47;;;;;;;;;;;;;;;27.27;78.91;97581.41;5064211;28;19925;-74
2023/07/19 06:55:14;;;;;;;;;;;;;;;27.19;78.58;97584.47;5043070;28;20051;-74
2023/07/19 06:57:40;;;;;;;;;;;;;;;27.04;79.58;97585.53;5061017;28;19932;-75
2023/07/19 07:00:07;;;;;;;;;;;;;;;26.88;80.04;97593.22;5063334;28;19925;-74
2023/07/19 07:02:34;;;;;;;;;;;;;;;27.13;79.93;97583.25;5062837;28;19924;-74
2023/07/19 07:05:01;;;;;;;;;;;;;;;27.18;78.82;97586.44;5062642;28;19960;-74
2023/07/19 07:07:28;;;;;;;;;;;;;;;27.19;78.69;97581.75;5042802;28;19971;-74
2023/07/19 07:09:54;;;;;;;;;;;;;;;27.31;78.10;97584.19;5061370;28;20019;-74
2023/07/19 07:12:21;;;;;;;;;;;;;;;27.52;76.37;97580.81;5064217;28;19963;-74
2023/07/19 07:14:48;;;;;;;;;;;;;;;27.61;75.22;97575.78;5064019;28;19956;-74
2023/07/19 07:17:14;;;;;;;;;;;;;;;27.65;74.11;97579.34;5067536;28;19967;-74
2023/07/19 07:19:40;;;;;;;;;;;;;;;27.81;73.40;97583.38;5060431;28;19931;-74
2023/07/19 07:22:08;;;;;;;;;;;;;;;27.81;71.10;97577.91;5062761;28;19935;-74
2023/07/19 07:24:35;;;;;;;;;;;;;;;27.80;72.67;97581.00;5063753;28;19955;-74
2023/07/19 07:27:03;;;;;;;;;;;;;;;27.91;72.51;97576.38;5062010;28;19925;-74
2023/07/19 07:29:29;;;;;;;;;;;;;;;28.03;72.24;97573.31;5042503;28;19925;-74
2023/07/19 07:31:55;;;;;;;;;;;;;;;28.15;71.80;97572.19;5061220;28;19967;-75
2023/07/19 07:34:21;;;;;;;;;;;;;;;27.84;73.08;97579.88;5063649;28;19924;-74
2023/07/19 07:36:48;;;;;;;;;;;;;;;27.48;76.42;97580.78;5063746;28;19960;-74
2023/07/19 07:39:16;;;;;;;;;;;;;;;27.52;77.26;97578.88;5051935;28;19926;-75
2023/07/19 07:41:42;;;;;;;;;;;;;;;27.73;76.41;97579.00;5051523;28;19925;-74
2023/07/19 07:44:08;;;;;;;;;;;;;;;28.15;74.59;97580.44;5033806;28;19925;-74
2023/07/19 07:46:35;;;;;;;;;;;;;;;28.42;73.03;97581.72;5064914;28;19932;-74
2023/07/19 07:49:01;;;;;;;;;;;;;;;28.35;71.47;97584.41;5061467;28;19993;-74
2023/07/19 07:51:29;;;;;;;;;;;;;;;28.18;72.04;97590.66;5059764;28;19994;-74
2023/07/19 07:53:55;;;;;;;;;;;;;;;28.32;71.75;97579.69;5060720;28;19925;-74
2023/07/19 07:56:24;;;;;;;;;;;;;;;28.33;69.72;97581.28;5045400;28;20019;-73
2023/07/19 07:58:50;;;;;;;;;;;;;;;28.50;69.56;97588.03;5062691;28;19963;-74
2023/07/19 08:01:16;;;;;;;;;;;;;;;28.43;69.17;97591.53;5041818;28;19952;-74
2023/07/19 08:03:43;;;;;;;;;;;;;;;28.16;70.26;97579.28;5041733;28;19925;-75
2023/07/19 08:06:09;;;;;;;;;;;;;;;28.27;70.16;97582.84;5062414;28;19933;-74
2023/07/19 08:08:36;;;;;;;;;;;;;;;28.28;70.20;97581.66;5062985;28;19931;-73
2023/07/19 08:11:04;;;;;;;;;;;;;;;28.20;70.16;97588.28;5061368;28;19946;-74
2023/07/19 08:13:32;;;;;;;;;;;;;;;27.96;70.72;97580.69;5059582;28;19929;-74
2023/07/19 08:15:58;;;;;;;;;;;;;;;27.59;70.85;97583.63;5067914;28;19968;-74
2023/07/19 08:18:25;;;;;;;;;;;;;;;27.57;71.75;97581.28;5062849;28;19925;-74
2023/07/19 08:20:52;;;;;;;;;;;;;;;27.85;71.82;97586.91;5062138;28;19988;-74
2023/07/19 08:23:19;;;;;;;;;;;;;;;28.44;71.04;97582.13;5059468;28;19931;-74
2023/07/19 08:25:46;;;;;;;;;;;;;;;29.02;67.17;97575.56;5059239;28;20329;-73
2023/07/19 08:28:12;;;;;;;;;;;;;;;29.24;65.90;97585.44;5062309;28;19988;-74
2023/07/19 08:30:40;;;;;;;;;;;;;;;29.40;65.35;97578.34;5062155;28;19951;-73
2023/07/19 08:33:08;;;;;;;;;;;;;;;29.41;64.66;97571.66;5042559;28;19951;-73
2023/07/19 08:35:34;;;;;;;;;;;;;;;29.51;64.31;97566.53;5059106;28;19968;-74
2023/07/19 08:38:01;;;;;;;;;;;;;;;29.57;63.82;97576.75;5060551;28;19924;-74
2023/07/19 08:40:28;;;;;;;;;;;;;;;29.67;63.40;97570.47;5062572;28;19970;-74
2023/07/19 08:42:55;;;;;;;;;;;;;;;29.57;63.65;97560.25;5061547;28;19955;-74
2023/07/19 08:45:22;;;;;;;;;;;;;;;29.70;63.70;97558.66;5044347;28;19925;-74
2023/07/19 08:47:51;;;;;;;;;;;;;;;29.32;64.07;97562.25;5062683;28;19925;-74
2023/07/19 08:50:17;;;;;;;;;;;;;;;29.10;65.33;97558.69;5041502;28;19931;-74
2023/07/19 08:52:44;;;;;;;;;;;;;;;29.20;67.09;97557.91;5041188;28;20001;-74
2023/07/19 08:55:11;;;;;;;;;;;;;;;29.68;65.66;97555.50;5062017;28;19931;-74
2023/07/19 08:57:43;;;;;;;;;;;;;;;29.80;65.49;97557.06;5044636;28;20409;-74
2023/07/19 09:00:10;;;;;;;;;;;;;;;29.96;65.38;97555.44;5059282;28;19929;-74
2023/07/19 09:02:36;;;;;;;;;;;;;;;29.78;65.44;97548.41;5058610;28;20008;-75
2023/07/19 09:05:08;;;;;;;;;;;;;;;29.90;65.95;97540.53;5060585;28;19925;-74
2023/07/19 09:07:36;;;;;;;;;;;;;;;29.45;67.25;97536.69;5062386;28;20371;-73
2023/07/19 09:10:03;;;;;;;;;;;;;;;29.37;68.46;97542.59;5060372;28;19925;-74
2023/07/19 09:12:35;;;;;;;;;;;;;;;29.06;70.03;97535.13;5041185;28;20009;-74
2023/07/19 09:15:01;;;;;;;;;;;;;;;29.44;68.86;97534.31;5060251;28;19925;-74
2023/07/19 09:17:28;;;;;;;;;;;;;;;30.18;65.73;97527.81;5065381;28;19944;-74
2023/07/19 09:19:55;;;;;;;;;;;;;;;30.38;64.32;97526.94;5059615;28;19934;-74
2023/07/19 09:22:22;;;;;;;;;;;;;;;30.29;61.57;97518.34;5062490;28;19975;-74
2023/07/19 09:24:53;;;;;;;;;;;;;;;30.31;63.42;97521.47;5062631;28;19924;-74
2023/07/19 09:27:23;;;;;;;;;;;;;;;30.36;61.40;97528.53;5049790;28;19965;-74
2023/07/19 09:29:51;;;;;;;;;;;;;;;29.93;63.00;97516.91;5051022;28;20497;-74
2023/07/19 09:32:17;;;;;;;;;;;;;;;30.24;62.99;97518.72;5049730;28;20332;-71
2023/07/19 09:34:44;;;;;;;;;;;;;;;30.25;61.25;97528.59;5050157;28;19932;-70
2023/07/19 09:37:11;;;;;;;;;;;;;;;30.16;60.95;97528.22;5050105;28;19952;-71
2023/07/19 09:39:40;;;;;;;;;;;;;;;30.24;58.30;97515.97;5050124;28;19932;-71
2023/07/19 09:42:08;;;;;;;;;;;;;;;30.26;58.45;97516.38;5051439;28;19960;-71
2023/07/19 09:44:36;;;;;;;;;;;;;;;30.36;57.79;97518.28;5054122;28;19926;-71
2023/07/19 09:47:02;;;;;;;;;;;;;;;30.50;55.69;97518.22;5069336;28;19924;-70
2023/07/19 09:49:29;;;;;;;;;;;;;;;30.20;55.86;97514.44;5062202;28;19996;-71
2023/07/19 09:51:56;;;;;;;;;;;;;;;30.36;53.07;97507.25;5062750;28;19926;-71
2023/07/19 09:54:25;;;;;;;;;;;;;;;30.04;54.56;97511.38;5065599;28;19997;-71
2023/07/19 09:56:53;;;;;;;;;;;;;;;30.28;55.84;97515.97;5065058;28;19992;-71
2023/07/19 09:59:23;;;;;;;;;;;;;;;30.37;54.67;97513.56;5044263;28;19936;-71
2023/07/19 10:01:50;;;;;;;;;;;;;;;30.27;55.26;97517.16;5044652;28;19929;-71
2023/07/19 10:04:23;;;;;;;;;;;;;;;30.38;55.24;97513.16;5065292;28;19925;-71
2023/07/19 10:06:50;;;;;;;;;;;;;;;30.49;55.27;97516.66;5065347;28;20258;-71
2023/07/19 10:09:30;;;;;;;;;;;;;;;30.58;54.75;97507.19;5061900;28;19948;-72
2023/07/19 10:12:00;;;;;;;;;;;;;;;30.42;52.11;97515.94;5062883;28;19932;-71
2023/07/19 10:14:27;;;;;;;;;;;;;;;30.20;51.87;97508.94;5065348;28;19987;-72
2023/07/19 10:16:56;;;;;;;;;;;;;;;30.36;53.56;97509.25;5070891;28;19935;-72
2023/07/19 10:19:23;;;;;;;;;;;;;;;30.64;52.84;97509.06;5043884;28;19925;-71
2023/07/19 10:22:01;;;;;;;;;;;;;;;30.81;52.15;97499.91;5061764;28;19932;-71
2023/07/19 10:24:27;;;;;;;;;;;;;;;30.93;51.62;97506.91;5053354;28;19925;-71
2023/07/19 10:26:54;;;;;;;;;;;;;;;30.80;50.63;97508.56;5052320;28;19967;-72
2023/07/19 10:29:23;;;;;;;;;;;;;;;30.66;50.93;97503.97;5053533;28;19952;-71
2023/07/19 10:31:50;;;;;;;;;;;;;;;30.82;50.75;97512.50;5053290;28;19925;-72
2023/07/19 10:34:16;;;;;;;;;;;;;;;30.83;47.17;97503.03;5053284;28;19925;-72
2023/07/19 10:36:46;;;;;;;;;;;;;;;30.76;49.93;97488.53;5035596;28;19953;-71
2023/07/19 10:39:12;;;;;;;;;;;;;;;30.98;50.06;97487.97;5053511;28;19925;-72
2023/07/19 10:41:39;;;;;;;;;;;;;;;31.03;49.04;97489.50;5053246;28;19944;-71
2023/07/19 10:44:05;;;;;;;;;;;;;;;30.97;47.83;97477.34;5053013;28;19980;-71
2023/07/19 10:46:33;;;;;;;;;;;;;;;30.97;49.41;97480.13;5066034;28;19932;-71
2023/07/19 10:48:59;;;;;;;;;;;;;;;31.02;48.86;97472.19;5063512;28;19924;-71
2023/07/19 10:51:26;;;;;;;;;;;;;;;31.08;49.12;97468.97;5061794;28;19929;-72
2023/07/19 10:53:56;;;;;;;;;;;;;;;30.95;48.69;97477.75;5061484;28;19956;-71
2023/07/19 10:56:23;;;;;;;;;;;;;;;31.05;48.55;97470.56;5046696;28;19925;-71
2023/07/19 10:58:49;;;;;;;;;;;;;;;30.88;49.13;97472.28;5064539;28;20452;-72
2023/07/19 11:01:16;;;;;;;;;;;;;;;30.92;46.29;97466.72;5035170;28;19925;-71
2023/07/19 11:03:47;;;;;;;;;;;;;;;30.91;49.00;97463.19;5052653;28;19925;-72
2023/07/19 11:06:14;;;;;;;;;;;;;;;31.12;48.86;97461.44;5052777;28;19960;-72
2023/07/19 11:08:40;;;;;;;;;;;;;;;31.27;48.42;97460.13;5052612;28;20363;-72
2023/07/19 11:11:07;;;;;;;;;;;;;;;31.21;47.78;97456.22;5051361;28;19925;-71
2023/07/19 11:13:34;;;;;;;;;;;;;;;31.24;47.90;97449.91;5052550;28;19925;-71
2023/07/19 11:16:01;;;;;;;;;;;;;;;31.20;47.36;97444.41;5061213;28;19924;-72
2023/07/19 11:18:28;;;;;;;;;;;;;;;31.28;46.48;97445.91;5064417;28;19925;-71
2023/07/19 11:20:55;;;;;;;;;;;;;;;31.25;45.89;97446.75;5063530;28;19947;-71
2023/07/19 11:23:21;;;;;;;;;;;;;;;31.31;46.64;97444.31;5042945;28;19979;-72
2023/07/19 11:25:48;;;;;;;;;;;;;;;31.30;47.10;97437.22;5060820;28;19929;-71
2023/07/19 11:28:14;;;;;;;;;;;;;;;31.43;46.42;97432.75;5064173;28;19925;-72
2023/07/19 11:30:41;;;;;;;;;;;;;;;31.52;45.60;97438.59;5064040;28;19992;-72
2023/07/19 11:33:09;;;;;;;;;;;;;;;31.45;45.50;97428.38;5043906;28;19986;-71
2023/07/19 11:35:36;;;;;;;;;;;;;;;31.42;45.24;97429.19;5060759;28;19925;-72
2023/07/19 11:38:03;;;;;;;;;;;;;;;31.49;44.50;97429.16;5062220;28;19925;-71
2023/07/19 11:40:30;;;;;;;;;;;;;;;31.64;43.99;97428.97;5046145;28;19925;-71
2023/07/19 11:42:57;;;;;;;;;;;;;;;31.60;43.67;97423.50;5062775;28;19963;-71
2023/07/19 11:45:24;;;;;;;;;;;;;;;31.59;44.32;97434.97;5064205;28;19925;-72
2023/07/19 11:47:52;;;;;;;;;;;;;;;31.51;44.46;97415.72;5063715;28;19984;-72
2023/07/19 11:50:20;;;;;;;;;;;;;;;31.62;45.14;97426.66;5063663;28;19925;-72
2023/07/19 11:52:48;;;;;;;;;;;;;;;31.44;44.31;97415.00;5046260;28;19992;-72
2023/07/19 11:55:16;;;;;;;;;;;;;;;31.59;43.83;97410.13;5060280;28;19956;-71
2023/07/19 11:57:43;;;;;;;;;;;;;;;31.51;44.45;97420.44;5042032;28;19956;-71
2023/07/19 12:00:11;;;;;;;;;;;;;;;31.83;41.44;97409.81;5062523;28;20479;-70
2023/07/19 12:02:37;;;;;;;;;;;;;;;31.63;43.51;97408.88;5063026;28;19924;-72
2023/07/19 12:05:05;;;;;;;;;;;;;;;31.67;43.97;97409.59;5060498;28;19925;-71
2023/07/19 12:07:32;;;;;;;;;;;;;;;31.80;43.55;97399.59;5059991;28;19992;-72
2023/07/19 12:09:58;;;;;;;;;;;;;;;31.76;43.35;97409.88;5061151;28;19925;-72
2023/07/19 12:12:26;;;;;;;;;;;;;;;31.75;42.85;97402.81;5063084;28;19925;-71
2023/07/19 12:14:52;;;;;;;;;;;;;;;31.76;43.07;97404.34;5062799;28;19936;-72
2023/07/19 12:17:19;;;;;;;;;;;;;;;31.77;42.14;97397.66;5067116;28;20282;-72
2023/07/19 12:19:45;;;;;;;;;;;;;;;31.95;41.79;97409.25;5059689;28;19925;-70
2023/07/19 12:22:12;;;;;;;;;;;;;;;32.02;41.47;97403.63;5062738;28;20507;-72
2023/07/19 12:24:38;;;;;;;;;;;;;;;31.85;40.92;97396.34;5063273;28;20028;-71
2023/07/19 12:27:05;;;;;;;;;;;;;;;31.83;41.73;97392.44;5060813;28;19976;-71
2023/07/19 12:29:33;;;;;;;;;;;;;;;31.85;41.31;97393.59;5059527;28;19967;-72
2023/07/19 12:31:59;;;;;;;;;;;;;;;31.75;41.91;97389.00;5060932;28;19956;-71
2023/07/19 12:34:26;;;;;;;;;;;;;;;31.85;41.90;97388.06;5045783;28;19932;-71
2023/07/19 12:36:52;;;;;;;;;;;;;;;31.86;42.28;97375.81;5064145;28;19924;-71
2023/07/19 12:39:18;;;;;;;;;;;;;;;31.83;42.82;97378.63;5042879;28;20388;-71
2023/07/19 12:41:45;;;;;;;;;;;;;;;31.95;41.71;97387.13;5043124;28;19932;-72
2023/07/19 12:44:11;;;;;;;;;;;;;;;31.80;42.51;97377.50;5046018;28;20516;-71